createdAt,value
2022-11-03T00:01:36.149Z,96820.09
2022-11-03T00:04:04.636Z,96815.56
2022-11-03T00:06:34.538Z,96815.19
2022-11-03T00:09:05.869Z,96809.25
2022-11-03T00:11:34.665Z,96803.63
2022-11-03T00:14:03.193Z,96805.69
2022-11-03T00:16:31.746Z,96799.34
2022-11-03T00:19:00.133Z,96805.56
2022-11-03T00:21:28.918Z,96797.22
2022-11-03T00:23:58.749Z,96786.56
2022-11-03T00:26:28.657Z,96788.00
2022-11-03T00:28:58.149Z,96786.34
2022-11-03T00:31:27.698Z,96781.69
2022-11-03T00:33:56.613Z,96783.06
2022-11-03T00:36:26.754Z,96783.66
2022-11-03T00:38:55.372Z,96788.16
2022-11-03T00:41:26.132Z,96784.00
2022-11-03T00:43:54.856Z,96790.81
2022-11-03T00:46:24.223Z,96781.94
2022-11-03T00:48:53.227Z,96774.03
2022-11-03T00:51:23.052Z,96771.97
2022-11-03T00:53:53.355Z,96772.78
2022-11-03T00:56:23.336Z,96768.63
2022-11-03T00:58:54.349Z,96756.81
2022-11-03T01:01:24.498Z,96760.25
2022-11-03T01:04:12.770Z,96754.19
2022-11-03T01:06:51.697Z,96756.22
2022-11-03T01:09:20.724Z,96748.91
2022-11-03T01:11:55.115Z,96750.41
2022-11-03T01:14:26.100Z,96744.13
2022-11-03T01:16:54.374Z,96743.31
2022-11-03T01:19:23.197Z,96742.03
2022-11-03T01:21:51.437Z,96734.56
2022-11-03T01:24:20.047Z,96731.19
2022-11-03T01:26:48.313Z,96735.13
2022-11-03T01:29:16.677Z,96741.78
2022-11-03T01:31:46.326Z,96737.91
2022-11-03T01:34:16.220Z,96722.91
2022-11-03T01:36:44.824Z,96718.66
2022-11-03T01:39:14.252Z,96719.25
2022-11-03T01:41:43.654Z,96720.53
2022-11-03T01:44:27.793Z,96719.53
2022-11-03T01:47:02.208Z,96717.50
2022-11-03T01:49:34.832Z,96718.78
2022-11-03T01:52:06.568Z,96706.91
2022-11-03T01:54:35.704Z,96706.16
2022-11-03T01:57:06.919Z,96713.41
2022-11-03T01:59:35.706Z,96713.50
2022-11-03T02:02:05.568Z,96712.97
2022-11-03T02:04:35.023Z,96708.69
2022-11-03T02:07:11.676Z,96698.09
2022-11-03T02:09:40.077Z,96698.16
2022-11-03T02:12:09.021Z,96683.63
2022-11-03T02:14:39.574Z,96693.44
2022-11-03T02:17:12.362Z,96696.41
2022-11-03T02:19:43.572Z,96690.03
2022-11-03T02:22:38.462Z,96685.81
2022-11-03T02:25:15.507Z,96682.00
2022-11-03T02:27:45.483Z,96677.84
2022-11-03T02:30:14.127Z,96671.97
2022-11-03T02:32:49.700Z,96671.06
2022-11-03T02:35:22.395Z,96666.41
2022-11-03T02:37:52.818Z,96663.56
2022-11-03T02:40:25.135Z,96665.84
2022-11-03T02:42:55.266Z,96666.44
2022-11-03T02:45:26.000Z,96670.91
2022-11-03T02:47:56.837Z,96668.81
2022-11-03T02:50:28.822Z,96662.66
2022-11-03T02:52:57.535Z,96662.63
2022-11-03T02:55:34.113Z,96658.78
2022-11-03T02:58:08.687Z,96656.31
2022-11-03T03:00:42.476Z,96644.19
2022-11-03T03:03:13.839Z,96638.59
2022-11-03T03:05:43.659Z,96639.13
2022-11-03T03:08:13.072Z,96629.16
2022-11-03T03:10:43.978Z,96629.09
2022-11-03T03:13:16.325Z,96614.88
2022-11-03T03:15:48.742Z,96616.28
2022-11-03T03:18:22.215Z,96612.66
2022-11-03T03:20:57.116Z,96610.25
2022-11-03T03:23:26.876Z,96600.59
2022-11-03T03:25:58.560Z,96610.94
2022-11-03T03:28:32.462Z,96615.50
2022-11-03T03:31:02.804Z,96591.75
2022-11-03T03:33:31.661Z,96593.44
2022-11-03T03:36:01.101Z,96583.84
2022-11-03T03:38:33.685Z,96596.94
2022-11-03T03:41:05.499Z,96587.56
2022-11-03T03:43:37.921Z,96591.94
2022-11-03T03:46:09.216Z,96588.84
2022-11-03T03:48:37.813Z,96591.81
2022-11-03T03:51:07.584Z,96595.31
2022-11-03T03:53:35.939Z,96589.22
2022-11-03T03:56:05.903Z,96585.84
2022-11-03T03:58:34.290Z,96582.19
2022-11-03T04:01:04.084Z,96585.63
2022-11-03T04:03:32.435Z,96581.66
2022-11-03T04:06:00.710Z,96577.97
2022-11-03T04:08:29.008Z,96574.09
2022-11-03T04:11:17.080Z,96566.69
2022-11-03T04:14:02.948Z,96567.56
2022-11-03T04:16:50.345Z,96564.16
2022-11-03T04:19:36.212Z,96552.00
2022-11-03T04:22:21.472Z,96560.03
2022-11-03T04:24:51.269Z,96563.19
2022-11-03T04:27:28.905Z,96559.78
2022-11-03T04:29:59.345Z,96570.47
2022-11-03T04:32:30.266Z,96566.94
2022-11-03T04:34:59.733Z,96563.28
2022-11-03T04:37:29.136Z,96560.97
2022-11-03T04:40:01.194Z,96558.34
2022-11-03T04:42:32.522Z,96555.31
2022-11-03T04:45:02.518Z,96553.09
2022-11-03T04:47:32.398Z,96545.78
2022-11-03T04:50:01.052Z,96541.66
2022-11-03T04:52:30.592Z,96540.50
2022-11-03T04:54:58.959Z,96534.19
2022-11-03T04:57:29.511Z,96533.06
2022-11-03T04:59:58.023Z,96533.03
2022-11-03T05:02:26.962Z,96527.50
2022-11-03T05:04:56.695Z,96519.22
2022-11-03T05:07:29.262Z,96518.63
2022-11-03T05:09:57.686Z,96509.75
2022-11-03T05:12:26.617Z,96505.56
2022-11-03T05:14:58.215Z,96504.66
2022-11-03T05:17:29.206Z,96501.44
2022-11-03T05:20:01.557Z,96500.88
2022-11-03T05:22:35.083Z,96494.00
2022-11-03T05:25:05.307Z,96486.16
2022-11-03T05:27:33.668Z,96489.75
2022-11-03T05:30:02.008Z,96488.41
2022-11-03T05:32:31.598Z,96489.03
2022-11-03T05:35:01.687Z,96486.59
2022-11-03T05:37:32.279Z,96494.94
2022-11-03T05:40:00.757Z,96483.06
2022-11-03T05:42:34.279Z,96485.56
2022-11-03T05:45:04.601Z,96484.22
2022-11-03T05:47:36.113Z,96477.19
2022-11-03T05:50:17.595Z,96475.66
2022-11-03T05:52:47.599Z,96474.91
2022-11-03T05:55:27.116Z,96472.09
2022-11-03T05:57:57.441Z,96471.50
2022-11-03T06:00:34.368Z,96459.00
2022-11-03T06:03:02.698Z,96468.50
2022-11-03T06:05:33.579Z,96465.69
2022-11-03T06:08:04.713Z,96462.66
2022-11-03T06:10:35.942Z,96457.50
2022-11-03T06:13:09.412Z,96458.44
2022-11-03T06:15:38.714Z,96457.69
2022-11-03T06:18:15.066Z,96457.84
2022-11-03T06:20:49.664Z,96463.56
2022-11-03T06:23:18.198Z,96457.69
2022-11-03T06:25:46.903Z,96465.53
2022-11-03T06:28:19.726Z,96458.91
2022-11-03T06:30:48.754Z,96458.38
2022-11-03T06:33:21.530Z,96461.31
2022-11-03T06:35:52.672Z,96444.34
2022-11-03T06:38:23.793Z,96444.03
2022-11-03T06:40:53.450Z,96437.72
2022-11-03T06:43:24.853Z,96431.69
2022-11-03T06:45:55.016Z,96433.81
2022-11-03T06:48:25.800Z,96433.75
2022-11-03T06:50:56.584Z,96436.22
2022-11-03T06:53:27.595Z,96436.41
2022-11-03T06:55:55.975Z,96431.47
2022-11-03T06:58:30.005Z,96434.16
2022-11-03T07:01:03.380Z,96426.41
2022-11-03T07:03:35.199Z,96429.00
2022-11-03T07:06:19.146Z,96427.50
2022-11-03T07:08:49.790Z,96427.69
2022-11-03T07:11:18.606Z,96429.19
2022-11-03T07:13:48.222Z,96433.00
2022-11-03T07:16:21.105Z,96425.38
2022-11-03T07:18:49.607Z,96424.03
2022-11-03T07:21:35.763Z,96419.25
2022-11-03T07:24:08.265Z,96426.50
2022-11-03T07:26:36.652Z,96428.69
2022-11-03T07:29:05.170Z,96416.09
2022-11-03T07:31:33.552Z,96426.34
2022-11-03T07:34:01.928Z,96414.44
2022-11-03T07:36:33.840Z,96426.59
2022-11-03T07:39:03.245Z,96416.41
2022-11-03T07:41:34.690Z,96413.53
2022-11-03T07:44:03.428Z,96402.22
2022-11-03T07:46:31.982Z,96397.66
2022-11-03T07:49:02.164Z,96386.78
2022-11-03T07:51:33.663Z,96393.00
2022-11-03T07:54:04.932Z,96395.72
2022-11-03T07:56:37.061Z,96395.00
2022-11-03T07:59:13.299Z,96389.91
2022-11-03T08:01:43.604Z,96376.47
2022-11-03T08:04:14.129Z,96375.44
2022-11-03T08:06:44.165Z,96378.84
2022-11-03T08:09:12.750Z,96379.06
2022-11-03T08:11:41.202Z,96377.50
2022-11-03T08:14:09.454Z,96356.69
2022-11-03T08:16:37.912Z,96362.28
2022-11-03T08:19:06.297Z,96352.19
2022-11-03T08:21:35.132Z,96361.94
2022-11-03T08:24:05.593Z,96350.06
2022-11-03T08:26:33.908Z,96342.53
2022-11-03T08:29:02.241Z,96338.25
2022-11-03T08:31:30.545Z,96336.44
2022-11-03T08:33:58.843Z,96326.34
2022-11-03T08:36:27.445Z,96330.06
2022-11-03T08:38:55.740Z,96324.06
2022-11-03T08:41:25.394Z,96319.16
2022-11-03T08:43:53.698Z,96303.97
2022-11-03T08:46:22.087Z,96302.63
2022-11-03T08:48:50.458Z,96299.84
2022-11-03T08:51:18.815Z,96298.13
2022-11-03T08:53:50.607Z,96298.38
2022-11-03T08:56:21.882Z,96292.41
2022-11-03T08:58:52.043Z,96285.97
2022-11-03T09:01:20.440Z,96291.09
2022-11-03T09:03:48.885Z,96278.66
2022-11-03T09:06:17.333Z,96278.41
2022-11-03T09:11:34.690Z,96278.31
2022-11-03T09:14:04.403Z,96274.31
2022-11-03T09:16:32.686Z,96271.25
2022-11-03T09:19:00.964Z,96272.31
2022-11-03T09:21:29.221Z,96259.56
2022-11-03T09:23:59.452Z,96261.41
2022-11-03T09:26:28.198Z,96252.78
2022-11-03T09:28:56.574Z,96237.91
2022-11-03T09:31:28.542Z,96236.06
2022-11-03T09:33:56.907Z,96245.31
2022-11-03T09:36:25.257Z,96236.66
2022-11-03T09:38:53.657Z,96225.22
2022-11-03T09:41:27.668Z,96228.03
2022-11-03T09:43:58.083Z,96222.59
2022-11-03T09:46:30.254Z,96244.34
2022-11-03T09:48:59.133Z,96236.69
2022-11-03T09:51:28.046Z,96224.53
2022-11-03T09:53:57.998Z,96222.50
2022-11-03T09:56:26.837Z,96229.88
2022-11-03T09:58:55.199Z,96219.97
2022-11-03T10:01:23.904Z,96213.44
2022-11-03T10:03:53.917Z,96212.41
2022-11-03T10:06:22.199Z,96207.47
2022-11-03T10:08:50.670Z,96211.56
2022-11-03T10:11:19.197Z,96210.16
2022-11-03T10:13:49.157Z,96188.34
2022-11-03T10:16:20.224Z,96200.47
2022-11-03T10:18:48.632Z,96195.56
2022-11-03T10:21:19.986Z,96194.53
2022-11-03T10:23:50.359Z,96173.94
2022-11-03T10:26:22.221Z,96181.16
2022-11-03T10:29:00.326Z,96184.84
2022-11-03T10:31:36.037Z,96175.41
2022-11-03T10:34:05.479Z,96178.88
2022-11-03T10:36:36.404Z,96179.94
2022-11-03T10:39:24.582Z,96159.75
2022-11-03T10:41:58.126Z,96149.44
2022-11-03T10:44:28.157Z,96151.84
2022-11-03T10:47:00.370Z,96163.47
2022-11-03T10:49:29.614Z,96154.56
2022-11-03T10:52:06.796Z,96159.53
2022-11-03T10:54:37.896Z,96153.38
2022-11-03T10:57:06.410Z,96150.09
2022-11-03T10:59:37.543Z,96144.22
2022-11-03T11:02:16.951Z,96138.75
2022-11-03T11:04:45.647Z,96137.72
2022-11-03T11:07:20.891Z,96130.22
2022-11-03T11:09:49.379Z,96131.72
2022-11-03T11:12:19.246Z,96130.16
2022-11-03T11:14:58.314Z,96126.19
2022-11-03T11:17:47.397Z,96123.41
2022-11-03T11:20:40.616Z,96123.56
2022-11-03T11:23:49.234Z,96123.41
2022-11-03T11:26:32.361Z,96131.25
2022-11-03T11:29:44.202Z,96114.00
2022-11-03T11:32:52.142Z,96121.28
2022-11-03T11:36:15.356Z,96115.63
2022-11-03T11:39:01.854Z,96125.56
2022-11-03T11:42:11.799Z,96126.84
2022-11-03T11:45:04.576Z,96108.44
2022-11-03T11:47:47.955Z,96100.19
2022-11-03T11:50:32.581Z,96101.50
2022-11-03T11:53:20.765Z,96099.19
2022-11-03T11:55:52.418Z,96103.44
2022-11-03T11:58:38.949Z,96082.09
2022-11-03T12:01:21.570Z,96081.00
2022-11-03T12:03:50.987Z,96084.19
2022-11-03T12:06:33.173Z,96082.47
2022-11-03T12:09:08.127Z,96067.59
2022-11-03T12:11:45.900Z,96065.91
2022-11-03T12:14:35.367Z,96067.53
2022-11-03T12:17:34.219Z,96065.47
2022-11-03T12:20:44.834Z,96067.13
2022-11-03T12:23:33.302Z,96070.44
2022-11-03T12:26:02.138Z,96065.66
2022-11-03T12:28:37.622Z,96063.59
2022-11-03T12:31:07.477Z,96062.53
2022-11-03T12:33:35.858Z,96051.66
2022-11-03T12:36:04.496Z,96051.09
2022-11-03T12:38:32.933Z,96037.28
2022-11-03T12:41:21.120Z,96032.75
2022-11-03T12:43:50.473Z,96014.41
2022-11-03T12:46:21.754Z,96024.63
2022-11-03T12:48:50.443Z,96022.94
2022-11-03T12:51:20.142Z,96016.50
2022-11-03T12:53:48.503Z,96022.91
2022-11-03T12:56:17.676Z,96027.78
2022-11-03T12:58:46.359Z,96023.41
2022-11-03T13:01:14.887Z,96017.44
2022-11-03T13:03:44.815Z,96028.19
2022-11-03T13:06:14.817Z,96016.47
2022-11-03T13:08:44.717Z,96020.09
2022-11-03T13:11:32.596Z,96015.84
2022-11-03T13:16:46.634Z,95989.66
2022-11-03T13:19:16.363Z,95987.38
2022-11-03T13:21:44.898Z,95986.34
2022-11-03T13:24:13.223Z,95981.13
2022-11-03T13:26:41.581Z,95964.13
2022-11-03T13:29:09.883Z,95958.06
2022-11-03T13:34:25.289Z,95949.03
2022-11-03T13:36:53.601Z,95944.06
2022-11-03T13:39:21.996Z,95947.25
2022-11-03T13:41:50.368Z,95939.69
2022-11-03T13:44:18.702Z,95931.25
2022-11-03T13:46:47.019Z,95937.81
2022-11-03T13:52:05.931Z,95919.41
2022-11-03T14:00:16.410Z,95914.22
2022-11-03T14:05:33.352Z,95913.19
2022-11-03T14:08:03.179Z,95906.53
2022-11-03T14:10:31.477Z,95905.78
2022-11-03T14:15:44.424Z,95885.06
2022-11-03T14:18:12.772Z,95881.72
2022-11-03T14:20:41.091Z,95887.47
2022-11-03T14:23:10.780Z,95879.44
2022-11-03T14:25:39.176Z,95886.09
2022-11-03T14:28:07.723Z,95863.72
2022-11-03T14:30:36.243Z,95879.53
2022-11-03T14:33:04.723Z,95877.47
2022-11-03T14:35:33.322Z,95879.41
2022-11-03T14:38:01.632Z,95872.50
2022-11-03T14:40:48.878Z,95866.91
2022-11-03T14:43:18.286Z,95856.75
2022-11-03T14:45:46.745Z,95856.63
2022-11-03T14:48:15.093Z,95853.84
2022-11-03T14:50:43.442Z,95864.72
2022-11-03T14:53:12.001Z,95861.75
2022-11-03T14:55:41.691Z,95838.44
2022-11-03T14:58:10.158Z,95825.91
2022-11-03T15:00:38.573Z,95830.44
2022-11-03T15:03:06.944Z,95826.44
2022-11-03T15:05:47.440Z,95832.59
2022-11-03T15:08:17.275Z,95831.78
2022-11-03T15:10:46.978Z,95837.59
2022-11-03T15:13:15.524Z,95831.63
2022-11-03T15:15:43.922Z,95836.97
2022-11-03T15:18:12.235Z,95822.84
2022-11-03T15:20:40.594Z,95817.94
2022-11-03T15:25:59.052Z,95796.88
2022-11-03T15:28:27.405Z,95789.34
2022-11-03T15:30:55.706Z,95779.31
2022-11-03T15:33:24.131Z,95775.44
2022-11-03T15:35:54.223Z,95776.19
2022-11-03T15:38:22.629Z,95766.44
2022-11-03T15:40:50.931Z,95767.47
2022-11-03T15:43:20.760Z,95761.69
2022-11-03T15:45:49.029Z,95755.97
2022-11-03T15:48:17.287Z,95757.22
2022-11-03T15:50:45.605Z,95750.66
2022-11-03T15:53:13.887Z,95752.22
2022-11-03T15:55:42.168Z,95743.50
2022-11-03T15:58:10.774Z,95734.88
2022-11-03T16:00:40.613Z,95731.19
2022-11-03T16:03:09.050Z,95734.66
2022-11-03T16:05:37.501Z,95724.84
2022-11-03T16:08:06.456Z,95718.91
2022-11-03T16:10:35.129Z,95711.19
2022-11-03T16:13:03.443Z,95710.22
2022-11-03T16:15:31.704Z,95699.28
2022-11-03T16:18:02.836Z,95694.56
2022-11-03T16:20:31.231Z,95680.63
2022-11-03T16:22:59.512Z,95680.38
2022-11-03T16:25:27.984Z,95685.53
2022-11-03T16:27:56.248Z,95693.13
2022-11-03T16:30:24.525Z,95696.34
2022-11-03T16:32:54.044Z,95697.59
2022-11-03T16:35:23.788Z,95682.00
2022-11-03T16:37:52.113Z,95667.25
2022-11-03T16:40:20.433Z,95665.00
2022-11-03T16:42:49.024Z,95659.00
2022-11-03T16:45:19.408Z,95658.75
2022-11-03T16:47:48.155Z,95655.72
2022-11-03T16:50:17.631Z,95653.97
2022-11-03T16:52:48.239Z,95650.25
2022-11-03T16:55:16.514Z,95638.03
2022-11-03T16:57:44.813Z,95635.59
2022-11-03T17:00:15.129Z,95620.94
2022-11-03T17:02:43.628Z,95616.22
2022-11-03T17:05:12.584Z,95603.06
2022-11-03T17:07:41.138Z,95596.13
2022-11-03T17:10:11.621Z,95597.53
2022-11-03T17:12:39.914Z,95598.16
2022-11-03T17:15:08.958Z,95593.59
2022-11-03T17:17:37.775Z,95586.50
2022-11-03T17:20:07.060Z,95583.41
2022-11-03T17:22:35.413Z,95584.78
2022-11-03T17:25:03.927Z,95579.34
2022-11-03T17:27:39.253Z,95572.63
2022-11-03T17:30:09.786Z,95563.81
2022-11-03T17:32:39.131Z,95559.06
2022-11-03T17:35:12.930Z,95559.44
2022-11-03T17:37:41.235Z,95555.31
2022-11-03T17:40:15.880Z,95543.41
2022-11-03T17:42:45.503Z,95544.78
2022-11-03T17:45:15.180Z,95528.53
2022-11-03T17:47:43.862Z,95526.03
2022-11-03T17:50:14.860Z,95509.09
2022-11-03T17:52:43.236Z,95503.56
2022-11-03T17:55:17.484Z,95495.78
2022-11-03T17:57:47.924Z,95488.19
2022-11-03T18:00:18.043Z,95489.03
2022-11-03T18:02:46.550Z,95485.56
2022-11-03T18:05:26.752Z,95483.44
2022-11-03T18:07:55.806Z,95478.50
2022-11-03T18:10:27.506Z,95468.16
2022-11-03T18:13:16.792Z,95469.09
2022-11-03T18:15:47.585Z,95464.34
2022-11-03T18:18:19.711Z,95450.69
2022-11-03T18:20:53.425Z,95442.72
2022-11-03T18:23:23.716Z,95439.25
2022-11-03T18:25:52.401Z,95438.00
2022-11-03T18:28:22.542Z,95438.47
2022-11-03T18:30:52.749Z,95429.50
2022-11-03T18:33:24.036Z,95422.28
2022-11-03T18:35:53.202Z,95409.75
2022-11-03T18:38:23.166Z,95402.00
2022-11-03T18:40:51.594Z,95401.81
2022-11-03T18:43:22.569Z,95396.06
2022-11-03T18:45:51.532Z,95388.19
2022-11-03T18:48:20.392Z,95391.53
2022-11-03T18:50:50.120Z,95390.69
2022-11-03T18:53:20.162Z,95406.09
2022-11-03T18:55:48.672Z,95426.81
2022-11-03T18:58:18.343Z,95434.38
2022-11-03T19:00:48.187Z,95418.56
2022-11-03T19:03:18.541Z,95411.75
2022-11-03T19:05:47.934Z,95422.06
2022-11-03T19:08:20.598Z,95392.75
2022-11-03T19:10:49.273Z,95392.22
2022-11-03T19:13:21.368Z,95377.53
2022-11-03T19:15:51.698Z,95377.66
2022-11-03T19:18:20.506Z,95363.03
2022-11-03T19:20:48.783Z,95356.94
2022-11-03T19:23:17.202Z,95343.59
2022-11-03T19:25:45.948Z,95347.19
2022-11-03T19:28:15.917Z,95343.72
2022-11-03T19:30:45.050Z,95336.31
2022-11-03T19:33:20.256Z,95333.94
2022-11-03T19:35:48.878Z,95333.94
2022-11-03T19:38:18.671Z,95331.44
2022-11-03T19:41:01.666Z,95322.56
2022-11-03T19:43:34.321Z,95326.72
2022-11-03T19:46:03.448Z,95324.84
2022-11-03T19:48:34.756Z,95322.31
2022-11-03T19:51:03.699Z,95309.63
2022-11-03T19:53:33.199Z,95306.28
2022-11-03T19:56:01.594Z,95308.22
2022-11-03T19:58:30.097Z,95302.69
2022-11-03T20:01:02.849Z,95286.72
2022-11-03T20:03:35.473Z,95277.84
2022-11-03T20:06:03.960Z,95271.59
2022-11-03T20:08:33.376Z,95267.06
2022-11-03T20:11:01.937Z,95259.91
2022-11-03T20:13:34.725Z,95260.47
2022-11-03T20:16:02.987Z,95254.41
2022-11-03T20:18:31.370Z,95248.06
2022-11-03T20:21:01.125Z,95248.72
2022-11-03T20:23:31.092Z,95253.53
2022-11-03T20:25:59.801Z,95248.44
2022-11-03T20:28:29.950Z,95239.09
2022-11-03T20:30:59.900Z,95241.47
2022-11-03T20:36:22.088Z,95245.13
2022-11-03T20:38:52.645Z,95252.78
2022-11-03T20:41:21.142Z,95243.38
2022-11-03T20:43:49.775Z,95244.25
2022-11-03T20:46:23.794Z,95244.28
2022-11-03T20:48:52.752Z,95228.03
2022-11-03T20:51:24.364Z,95222.50
2022-11-03T20:53:52.817Z,95192.47
2022-11-03T20:56:23.310Z,95182.66
2022-11-03T20:58:51.760Z,95185.72
2022-11-03T21:01:25.956Z,95185.53
2022-11-03T21:04:01.796Z,95171.22
2022-11-03T21:06:33.197Z,95169.53
2022-11-03T21:09:01.881Z,95155.41
2022-11-03T21:11:34.290Z,95157.94
2022-11-03T21:14:06.375Z,95152.72
2022-11-03T21:16:52.274Z,95154.31
2022-11-03T21:19:39.705Z,95153.69
2022-11-03T21:22:50.797Z,95160.38
2022-11-03T21:25:04.383Z,95151.59
2022-11-03T21:27:33.829Z,95136.94
2022-11-03T21:30:03.066Z,95136.25
2022-11-03T21:32:31.432Z,95142.66
2022-11-03T21:35:01.757Z,95130.19
2022-11-03T21:37:31.419Z,95132.16
2022-11-03T21:39:59.750Z,95129.63
2022-11-03T21:42:45.429Z,95121.97
2022-11-03T21:45:14.773Z,95121.97
2022-11-03T21:48:03.059Z,95113.31
2022-11-03T21:50:30.292Z,95101.28
2022-11-03T21:52:59.964Z,95100.09
2022-11-03T21:55:29.011Z,95093.84
2022-11-03T21:57:57.399Z,95096.44
2022-11-03T22:00:25.699Z,95087.91
2022-11-03T22:02:54.042Z,95102.13
2022-11-03T22:05:22.353Z,95105.31
2022-11-03T22:07:50.710Z,95109.41
2022-11-03T22:10:20.630Z,95120.28
2022-11-03T22:12:49.087Z,95114.59
2022-11-03T22:15:35.349Z,95118.88
2022-11-03T22:18:04.417Z,95107.41
2022-11-03T22:20:50.542Z,95115.34
2022-11-03T22:23:36.408Z,95118.69
2022-11-03T22:26:23.773Z,95120.50
2022-11-03T22:29:12.127Z,95127.56
2022-11-03T22:31:42.251Z,95127.22
2022-11-03T22:34:28.216Z,95125.47
2022-11-03T22:36:56.591Z,95124.75
2022-11-03T22:39:42.465Z,95116.94
2022-11-03T22:42:31.026Z,95108.16
2022-11-03T22:45:17.181Z,95122.22
2022-11-03T22:47:45.492Z,95127.69
2022-11-03T22:50:13.892Z,95142.94
2022-11-03T22:52:42.261Z,95151.69
2022-11-03T22:55:09.532Z,95148.19
2022-11-03T22:57:39.229Z,95155.81
2022-11-03T23:00:08.428Z,95153.81
2022-11-03T23:02:36.734Z,95159.53
2022-11-03T23:05:05.854Z,95154.84
2022-11-03T23:07:40.036Z,95151.75
2022-11-03T23:10:10.409Z,95143.72
2022-11-03T23:12:40.057Z,95175.78
2022-11-03T23:15:27.019Z,95214.94
2022-11-03T23:18:13.035Z,95213.75
2022-11-03T23:20:58.840Z,95235.59
2022-11-03T23:23:44.756Z,95229.69
2022-11-03T23:26:13.120Z,95243.56
2022-11-03T23:28:42.797Z,95254.13
2022-11-03T23:31:11.551Z,95253.16
2022-11-03T23:33:40.026Z,95260.28
2022-11-03T23:36:10.668Z,95268.13
2022-11-03T23:38:39.002Z,95270.34
2022-11-03T23:41:08.922Z,95276.19
2022-11-03T23:43:37.438Z,95283.53
2022-11-03T23:46:24.999Z,95287.88
2022-11-03T23:48:53.705Z,95291.56
2022-11-03T23:51:23.311Z,95287.81
2022-11-03T23:53:52.137Z,95298.06
2022-11-03T23:56:38.947Z,95303.84
2022-11-03T23:59:08.300Z,95307.53
